sensor_id;sensor_type;location;lat;lon;timestamp;P1;durP1;ratioP1;P2;durP2;ratioP2
78871;SDS011;68247;43.514;1.502;2023-09-19T00:00:18;10.38;;;2.20;;
78871;SDS011;68247;43.514;1.502;2023-09-19T00:02:46;5.70;;;2.10;;
78871;SDS011;68247;43.514;1.502;2023-09-19T00:05:16;8.43;;;2.15;;
78871;SDS011;68247;43.514;1.502;2023-09-19T00:07:42;7.37;;;2.17;;
78871;SDS011;68247;43.514;1.502;2023-09-19T00:10:07;6.67;;;2.50;;
78871;SDS011;68247;43.514;1.502;2023-09-19T00:12:34;9.82;;;2.55;;
78871;SDS011;68247;43.514;1.502;2023-09-19T00:15:00;8.20;;;2.27;;
78871;SDS011;68247;43.514;1.502;2023-09-19T00:17:26;9.70;;;2.40;;
78871;SDS011;68247;43.514;1.502;2023-09-19T00:19:55;8.32;;;2.35;;
78871;SDS011;68247;43.514;1.502;2023-09-19T00:22:21;10.57;;;2.30;;
78871;SDS011;68247;43.514;1.502;2023-09-19T00:24:46;6.60;;;2.37;;
78871;SDS011;68247;43.514;1.502;2023-09-19T00:27:11;8.73;;;2.60;;
78871;SDS011;68247;43.514;1.502;2023-09-19T00:29:37;9.30;;;2.13;;
78871;SDS011;68247;43.514;1.502;2023-09-19T00:32:02;8.60;;;2.90;;
78871;SDS011;68247;43.514;1.502;2023-09-19T00:34:29;8.05;;;2.00;;
78871;SDS011;68247;43.514;1.502;2023-09-19T00:36:56;9.20;;;2.28;;
78871;SDS011;68247;43.514;1.502;2023-09-19T00:39:21;12.07;;;2.40;;
78871;SDS011;68247;43.514;1.502;2023-09-19T00:41:47;6.80;;;2.20;;
78871;SDS011;68247;43.514;1.502;2023-09-19T00:44:12;7.13;;;2.13;;
78871;SDS011;68247;43.514;1.502;2023-09-19T00:46:38;7.77;;;2.43;;
78871;SDS011;68247;43.514;1.502;2023-09-19T00:49:04;9.60;;;2.13;;
78871;SDS011;68247;43.514;1.502;2023-09-19T00:51:30;10.13;;;2.20;;
78871;SDS011;68247;43.514;1.502;2023-09-19T00:53:56;6.77;;;1.97;;
78871;SDS011;68247;43.514;1.502;2023-09-19T00:56:21;8.88;;;2.33;;
78871;SDS011;68247;43.514;1.502;2023-09-19T00:58:48;7.33;;;2.50;;
78871;SDS011;68247;43.514;1.502;2023-09-19T01:01:13;11.35;;;2.25;;
78871;SDS011;68247;43.514;1.502;2023-09-19T01:03:42;6.67;;;2.10;;
78871;SDS011;68247;43.514;1.502;2023-09-19T01:06:09;8.52;;;2.22;;
78871;SDS011;68247;43.514;1.502;2023-09-19T01:08:35;7.37;;;2.10;;
78871;SDS011;68247;43.514;1.502;2023-09-19T01:22:14;6.57;;;2.10;;
78871;SDS011;68247;43.514;1.502;2023-09-19T01:30:11;9.10;;;2.30;;
78871;SDS011;68247;43.514;1.502;2023-09-19T01:32:40;7.80;;;2.30;;
78871;SDS011;68247;43.514;1.502;2023-09-19T01:35:06;10.15;;;2.05;;
78871;SDS011;68247;43.514;1.502;2023-09-19T01:37:37;9.23;;;2.60;;
78871;SDS011;68247;43.514;1.502;2023-09-19T01:40:06;8.27;;;2.40;;
78871;SDS011;68247;43.514;1.502;2023-09-19T01:42:45;5.95;;;1.92;;
78871;SDS011;68247;43.514;1.502;2023-09-19T01:51:11;7.47;;;2.37;;
78871;SDS011;68247;43.514;1.502;2023-09-19T01:59:02;6.50;;;2.20;;
78871;SDS011;68247;43.514;1.502;2023-09-19T02:01:30;8.38;;;1.98;;
78871;SDS011;68247;43.514;1.502;2023-09-19T02:03:56;5.23;;;1.97;;
78871;SDS011;68247;43.514;1.502;2023-09-19T02:06:21;7.27;;;2.07;;
78871;SDS011;68247;43.514;1.502;2023-09-19T02:08:47;5.83;;;1.97;;
78871;SDS011;68247;43.514;1.502;2023-09-19T02:11:12;8.13;;;2.28;;
78871;SDS011;68247;43.514;1.502;2023-09-19T02:13:38;6.87;;;2.20;;
78871;SDS011;68247;43.514;1.502;2023-09-19T02:16:03;5.70;;;2.13;;
78871;SDS011;68247;43.514;1.502;2023-09-19T02:18:32;10.00;;;2.40;;
78871;SDS011;68247;43.514;1.502;2023-09-19T02:21:00;7.05;;;2.13;;
78871;SDS011;68247;43.514;1.502;2023-09-19T02:23:26;9.23;;;2.38;;
78871;SDS011;68247;43.514;1.502;2023-09-19T02:25:52;9.10;;;2.27;;
78871;SDS011;68247;43.514;1.502;2023-09-19T02:28:20;11.27;;;2.47;;
78871;SDS011;68247;43.514;1.502;2023-09-19T02:30:48;7.67;;;2.70;;
78871;SDS011;68247;43.514;1.502;2023-09-19T02:33:15;8.38;;;2.42;;
78871;SDS011;68247;43.514;1.502;2023-09-19T02:35:42;7.53;;;2.78;;
78871;SDS011;68247;43.514;1.502;2023-09-19T02:38:07;4.77;;;1.90;;
78871;SDS011;68247;43.514;1.502;2023-09-19T02:40:33;8.77;;;2.30;;
78871;SDS011;68247;43.514;1.502;2023-09-19T02:43:01;6.78;;;2.20;;
78871;SDS011;68247;43.514;1.502;2023-09-19T02:45:27;7.50;;;2.57;;
78871;SDS011;68247;43.514;1.502;2023-09-19T02:47:52;7.72;;;2.20;;
78871;SDS011;68247;43.514;1.502;2023-09-19T02:50:18;8.07;;;2.70;;
78871;SDS011;68247;43.514;1.502;2023-09-19T02:52:43;7.75;;;2.30;;
78871;SDS011;68247;43.514;1.502;2023-09-19T02:55:10;9.17;;;2.50;;
78871;SDS011;68247;43.514;1.502;2023-09-19T02:57:37;8.80;;;2.47;;
78871;SDS011;68247;43.514;1.502;2023-09-19T03:00:06;6.47;;;2.10;;
78871;SDS011;68247;43.514;1.502;2023-09-19T03:02:33;6.85;;;2.20;;
78871;SDS011;68247;43.514;1.502;2023-09-19T03:04:59;8.77;;;2.40;;
78871;SDS011;68247;43.514;1.502;2023-09-19T03:07:25;8.17;;;2.17;;
78871;SDS011;68247;43.514;1.502;2023-09-19T03:09:51;9.73;;;2.20;;
78871;SDS011;68247;43.514;1.502;2023-09-19T03:12:18;5.80;;;1.92;;
78871;SDS011;68247;43.514;1.502;2023-09-19T03:14:43;7.20;;;2.50;;
78871;SDS011;68247;43.514;1.502;2023-09-19T03:17:09;5.93;;;1.90;;
78871;SDS011;68247;43.514;1.502;2023-09-19T03:19:34;7.67;;;2.50;;
78871;SDS011;68247;43.514;1.502;2023-09-19T03:22:00;8.23;;;2.50;;
78871;SDS011;68247;43.514;1.502;2023-09-19T03:24:25;9.13;;;2.40;;
78871;SDS011;68247;43.514;1.502;2023-09-19T03:26:51;6.63;;;2.10;;
78871;SDS011;68247;43.514;1.502;2023-09-19T03:29:17;8.68;;;2.40;;
78871;SDS011;68247;43.514;1.502;2023-09-19T03:31:43;9.17;;;2.20;;
78871;SDS011;68247;43.514;1.502;2023-09-19T03:34:08;6.25;;;1.95;;
78871;SDS011;68247;43.514;1.502;2023-09-19T03:36:34;9.40;;;2.13;;
78871;SDS011;68247;43.514;1.502;2023-09-19T03:39:00;6.30;;;2.08;;
78871;SDS011;68247;43.514;1.502;2023-09-19T03:41:25;9.40;;;2.13;;
78871;SDS011;68247;43.514;1.502;2023-09-19T03:43:51;8.63;;;2.35;;
78871;SDS011;68247;43.514;1.502;2023-09-19T03:46:16;8.07;;;2.30;;
78871;SDS011;68247;43.514;1.502;2023-09-19T03:48:42;7.27;;;2.07;;
78871;SDS011;68247;43.514;1.502;2023-09-19T03:51:07;8.07;;;2.40;;
78871;SDS011;68247;43.514;1.502;2023-09-19T03:53:33;6.80;;;2.33;;
78871;SDS011;68247;43.514;1.502;2023-09-19T03:55:58;6.37;;;2.03;;
78871;SDS011;68247;43.514;1.502;2023-09-19T03:58:25;5.88;;;2.00;;
78871;SDS011;68247;43.514;1.502;2023-09-19T04:00:53;6.95;;;2.15;;
78871;SDS011;68247;43.514;1.502;2023-09-19T04:03:20;7.77;;;2.40;;
78871;SDS011;68247;43.514;1.502;2023-09-19T04:05:46;8.88;;;2.55;;
78871;SDS011;68247;43.514;1.502;2023-09-19T04:08:13;8.50;;;2.25;;
78871;SDS011;68247;43.514;1.502;2023-09-19T04:10:41;6.87;;;2.10;;
78871;SDS011;68247;43.514;1.502;2023-09-19T04:13:07;9.70;;;2.60;;
78871;SDS011;68247;43.514;1.502;2023-09-19T04:15:32;7.33;;;2.20;;
78871;SDS011;68247;43.514;1.502;2023-09-19T04:17:58;10.77;;;2.23;;
78871;SDS011;68247;43.514;1.502;2023-09-19T04:20:23;8.33;;;2.40;;
78871;SDS011;68247;43.514;1.502;2023-09-19T04:22:48;9.90;;;2.33;;
78871;SDS011;68247;43.514;1.502;2023-09-19T04:25:14;9.30;;;2.53;;
78871;SDS011;68247;43.514;1.502;2023-09-19T04:27:39;7.38;;;2.45;;
78871;SDS011;68247;43.514;1.502;2023-09-19T04:30:06;9.00;;;2.67;;
78871;SDS011;68247;43.514;1.502;2023-09-19T04:32:40;9.70;;;3.10;;
78871;SDS011;68247;43.514;1.502;2023-09-19T04:35:09;6.97;;;2.35;;
78871;SDS011;68247;43.514;1.502;2023-09-19T04:37:36;9.23;;;2.58;;
78871;SDS011;68247;43.514;1.502;2023-09-19T04:40:06;6.60;;;2.50;;
78871;SDS011;68247;43.514;1.502;2023-09-19T04:42:42;8.77;;;2.70;;
78871;SDS011;68247;43.514;1.502;2023-09-19T04:45:15;7.85;;;2.35;;
78871;SDS011;68247;43.514;1.502;2023-09-19T04:47:41;6.82;;;2.22;;
78871;SDS011;68247;43.514;1.502;2023-09-19T04:50:08;7.10;;;2.10;;
78871;SDS011;68247;43.514;1.502;2023-09-19T04:52:41;6.40;;;2.33;;
78871;SDS011;68247;43.514;1.502;2023-09-19T04:55:10;5.93;;;2.40;;
78871;SDS011;68247;43.514;1.502;2023-09-19T04:57:41;8.15;;;2.65;;
78871;SDS011;68247;43.514;1.502;2023-09-19T05:00:12;7.40;;;2.30;;
78871;SDS011;68247;43.514;1.502;2023-09-19T05:02:39;6.07;;;2.08;;
78871;SDS011;68247;43.514;1.502;2023-09-19T05:05:06;7.57;;;2.75;;
78871;SDS011;68247;43.514;1.502;2023-09-19T05:07:33;7.77;;;2.20;;
78871;SDS011;68247;43.514;1.502;2023-09-19T05:09:59;7.82;;;2.30;;
78871;SDS011;68247;43.514;1.502;2023-09-19T05:12:25;9.35;;;2.40;;
78871;SDS011;68247;43.514;1.502;2023-09-19T05:14:52;7.13;;;2.33;;
78871;SDS011;68247;43.514;1.502;2023-09-19T05:17:18;8.38;;;2.15;;
78871;SDS011;68247;43.514;1.502;2023-09-19T05:19:43;6.97;;;2.50;;
78871;SDS011;68247;43.514;1.502;2023-09-19T05:22:08;8.10;;;2.30;;
78871;SDS011;68247;43.514;1.502;2023-09-19T05:24:34;7.13;;;2.53;;
78871;SDS011;68247;43.514;1.502;2023-09-19T05:26:59;10.73;;;2.78;;
78871;SDS011;68247;43.514;1.502;2023-09-19T05:29:25;9.43;;;2.23;;
78871;SDS011;68247;43.514;1.502;2023-09-19T05:31:51;6.55;;;2.28;;
78871;SDS011;68247;43.514;1.502;2023-09-19T05:34:18;9.13;;;2.27;;
78871;SDS011;68247;43.514;1.502;2023-09-19T05:36:44;9.00;;;2.50;;
78871;SDS011;68247;43.514;1.502;2023-09-19T05:39:10;9.13;;;2.63;;
78871;SDS011;68247;43.514;1.502;2023-09-19T05:41:35;8.88;;;2.60;;
78871;SDS011;68247;43.514;1.502;2023-09-19T05:44:02;8.55;;;2.70;;
78871;SDS011;68247;43.514;1.502;2023-09-19T05:46:28;9.80;;;2.50;;
78871;SDS011;68247;43.514;1.502;2023-09-19T05:48:55;6.95;;;2.88;;
78871;SDS011;68247;43.514;1.502;2023-09-19T05:51:21;7.82;;;2.70;;
78871;SDS011;68247;43.514;1.502;2023-09-19T05:53:48;12.38;;;2.58;;
78871;SDS011;68247;43.514;1.502;2023-09-19T05:56:13;8.33;;;2.83;;
78871;SDS011;68247;43.514;1.502;2023-09-19T05:58:40;10.35;;;2.65;;
78871;SDS011;68247;43.514;1.502;2023-09-19T06:01:08;7.85;;;2.50;;
78871;SDS011;68247;43.514;1.502;2023-09-19T06:03:34;6.55;;;2.85;;
78871;SDS011;68247;43.514;1.502;2023-09-19T06:06:01;8.27;;;2.77;;
78871;SDS011;68247;43.514;1.502;2023-09-19T06:08:26;6.18;;;2.53;;
78871;SDS011;68247;43.514;1.502;2023-09-19T06:10:53;8.27;;;2.80;;
78871;SDS011;68247;43.514;1.502;2023-09-19T06:13:19;8.37;;;2.80;;
78871;SDS011;68247;43.514;1.502;2023-09-19T06:15:45;9.57;;;3.20;;
78871;SDS011;68247;43.514;1.502;2023-09-19T06:18:12;10.68;;;2.67;;
78871;SDS011;68247;43.514;1.502;2023-09-19T06:20:44;7.10;;;2.35;;
78871;SDS011;68247;43.514;1.502;2023-09-19T06:23:13;7.90;;;2.57;;
78871;SDS011;68247;43.514;1.502;2023-09-19T06:25:39;7.75;;;2.80;;
78871;SDS011;68247;43.514;1.502;2023-09-19T06:28:05;8.32;;;2.55;;
78871;SDS011;68247;43.514;1.502;2023-09-19T06:30:33;7.75;;;2.80;;
78871;SDS011;68247;43.514;1.502;2023-09-19T06:32:59;8.67;;;2.57;;
78871;SDS011;68247;43.514;1.502;2023-09-19T06:35:28;7.97;;;2.50;;
78871;SDS011;68247;43.514;1.502;2023-09-19T06:37:57;8.77;;;2.40;;
78871;SDS011;68247;43.514;1.502;2023-09-19T06:40:23;9.70;;;2.90;;
78871;SDS011;68247;43.514;1.502;2023-09-19T06:42:52;5.82;;;2.70;;
78871;SDS011;68247;43.514;1.502;2023-09-19T06:45:19;7.07;;;2.75;;
78871;SDS011;68247;43.514;1.502;2023-09-19T06:47:46;7.80;;;2.50;;
78871;SDS011;68247;43.514;1.502;2023-09-19T06:50:19;9.38;;;2.80;;
78871;SDS011;68247;43.514;1.502;2023-09-19T06:52:47;9.23;;;2.17;;
78871;SDS011;68247;43.514;1.502;2023-09-19T06:55:15;11.32;;;2.42;;
78871;SDS011;68247;43.514;1.502;2023-09-19T06:57:42;9.32;;;2.53;;
78871;SDS011;68247;43.514;1.502;2023-09-19T07:00:09;8.95;;;2.35;;
78871;SDS011;68247;43.514;1.502;2023-09-19T07:02:42;6.32;;;2.20;;
78871;SDS011;68247;43.514;1.502;2023-09-19T07:05:08;7.13;;;2.23;;
78871;SDS011;68247;43.514;1.502;2023-09-19T07:07:34;8.52;;;1.90;;
78871;SDS011;68247;43.514;1.502;2023-09-19T07:10:03;9.03;;;2.20;;
78871;SDS011;68247;43.514;1.502;2023-09-19T07:12:35;10.73;;;2.63;;
78871;SDS011;68247;43.514;1.502;2023-09-19T07:15:00;9.33;;;2.30;;
78871;SDS011;68247;43.514;1.502;2023-09-19T07:17:26;7.63;;;2.60;;
78871;SDS011;68247;43.514;1.502;2023-09-19T07:19:53;8.13;;;2.20;;
78871;SDS011;68247;43.514;1.502;2023-09-19T07:22:18;9.87;;;2.23;;
78871;SDS011;68247;43.514;1.502;2023-09-19T07:24:43;9.23;;;2.40;;
78871;SDS011;68247;43.514;1.502;2023-09-19T07:27:09;11.33;;;2.30;;
78871;SDS011;68247;43.514;1.502;2023-09-19T07:29:34;7.67;;;2.07;;
78871;SDS011;68247;43.514;1.502;2023-09-19T07:32:00;10.03;;;2.20;;
78871;SDS011;68247;43.514;1.502;2023-09-19T07:34:25;11.37;;;2.70;;
78871;SDS011;68247;43.514;1.502;2023-09-19T07:36:50;7.63;;;2.03;;
78871;SDS011;68247;43.514;1.502;2023-09-19T07:39:16;6.70;;;2.50;;
78871;SDS011;68247;43.514;1.502;2023-09-19T07:41:41;9.80;;;2.13;;
78871;SDS011;68247;43.514;1.502;2023-09-19T07:44:07;7.47;;;2.23;;
78871;SDS011;68247;43.514;1.502;2023-09-19T07:46:34;7.15;;;1.80;;
78871;SDS011;68247;43.514;1.502;2023-09-19T07:49:00;10.47;;;2.37;;
78871;SDS011;68247;43.514;1.502;2023-09-19T07:51:25;8.90;;;2.20;;
78871;SDS011;68247;43.514;1.502;2023-09-19T07:53:52;9.40;;;2.43;;
78871;SDS011;68247;43.514;1.502;2023-09-19T07:56:17;5.43;;;2.13;;
78871;SDS011;68247;43.514;1.502;2023-09-19T07:58:45;9.68;;;2.30;;
78871;SDS011;68247;43.514;1.502;2023-09-19T08:01:10;7.43;;;1.97;;
78871;SDS011;68247;43.514;1.502;2023-09-19T08:03:38;11.32;;;2.63;;
78871;SDS011;68247;43.514;1.502;2023-09-19T08:06:08;9.97;;;2.07;;
78871;SDS011;68247;43.514;1.502;2023-09-19T08:08:34;8.15;;;2.22;;
78871;SDS011;68247;43.514;1.502;2023-09-19T08:11:02;8.98;;;2.10;;
78871;SDS011;68247;43.514;1.502;2023-09-19T08:13:38;6.37;;;1.80;;
78871;SDS011;68247;43.514;1.502;2023-09-19T08:16:11;12.60;;;2.60;;
78871;SDS011;68247;43.514;1.502;2023-09-19T08:18:37;8.20;;;2.03;;
78871;SDS011;68247;43.514;1.502;2023-09-19T08:21:05;7.68;;;2.10;;
78871;SDS011;68247;43.514;1.502;2023-09-19T08:23:35;8.52;;;2.30;;
78871;SDS011;68247;43.514;1.502;2023-09-19T08:26:04;8.90;;;1.90;;
78871;SDS011;68247;43.514;1.502;2023-09-19T08:28:33;12.07;;;2.38;;
78871;SDS011;68247;43.514;1.502;2023-09-19T08:31:05;9.75;;;2.75;;
78871;SDS011;68247;43.514;1.502;2023-09-19T08:33:35;9.77;;;2.38;;
78871;SDS011;68247;43.514;1.502;2023-09-19T08:36:01;9.70;;;2.25;;
78871;SDS011;68247;43.514;1.502;2023-09-19T08:38:30;8.67;;;2.17;;
78871;SDS011;68247;43.514;1.502;2023-09-19T08:40:58;7.32;;;2.17;;
78871;SDS011;68247;43.514;1.502;2023-09-19T08:43:27;7.75;;;2.03;;
78871;SDS011;68247;43.514;1.502;2023-09-19T08:46:02;7.57;;;2.10;;
78871;SDS011;68247;43.514;1.502;2023-09-19T08:48:33;8.43;;;2.20;;
78871;SDS011;68247;43.514;1.502;2023-09-19T08:53:50;11.18;;;2.13;;
78871;SDS011;68247;43.514;1.502;2023-09-19T08:56:18;12.10;;;2.27;;
78871;SDS011;68247;43.514;1.502;2023-09-19T08:58:46;8.52;;;2.08;;
78871;SDS011;68247;43.514;1.502;2023-09-19T09:01:16;6.25;;;2.03;;
78871;SDS011;68247;43.514;1.502;2023-09-19T09:03:42;5.00;;;1.75;;
78871;SDS011;68247;43.514;1.502;2023-09-19T09:06:11;8.27;;;2.10;;
78871;SDS011;68247;43.514;1.502;2023-09-19T09:08:40;6.20;;;1.80;;
78871;SDS011;68247;43.514;1.502;2023-09-19T09:11:05;6.18;;;2.05;;
78871;SDS011;68247;43.514;1.502;2023-09-19T09:13:34;6.82;;;2.15;;
78871;SDS011;68247;43.514;1.502;2023-09-19T09:16:00;7.20;;;2.00;;
78871;SDS011;68247;43.514;1.502;2023-09-19T09:18:26;7.28;;;1.73;;
78871;SDS011;68247;43.514;1.502;2023-09-19T09:20:54;5.87;;;2.00;;
78871;SDS011;68247;43.514;1.502;2023-09-19T09:23:21;6.57;;;2.05;;
78871;SDS011;68247;43.514;1.502;2023-09-19T09:25:47;7.03;;;2.07;;
78871;SDS011;68247;43.514;1.502;2023-09-19T09:28:12;6.70;;;2.00;;
78871;SDS011;68247;43.514;1.502;2023-09-19T09:30:44;6.53;;;2.00;;
78871;SDS011;68247;43.514;1.502;2023-09-19T09:33:11;6.43;;;2.08;;
78871;SDS011;68247;43.514;1.502;2023-09-19T09:35:38;8.07;;;1.83;;
78871;SDS011;68247;43.514;1.502;2023-09-19T09:38:18;5.13;;;1.70;;
78871;SDS011;68247;43.514;1.502;2023-09-19T09:40:52;7.20;;;1.83;;
78871;SDS011;68247;43.514;1.502;2023-09-19T09:43:41;7.80;;;2.17;;
78871;SDS011;68247;43.514;1.502;2023-09-19T09:46:17;5.80;;;1.90;;
78871;SDS011;68247;43.514;1.502;2023-09-19T09:48:58;7.20;;;2.10;;
78871;SDS011;68247;43.514;1.502;2023-09-19T09:54:25;6.00;;;1.93;;
78871;SDS011;68247;43.514;1.502;2023-09-19T09:57:01;6.10;;;1.58;;
78871;SDS011;68247;43.514;1.502;2023-09-19T09:59:51;5.25;;;1.85;;
78871;SDS011;68247;43.514;1.502;2023-09-19T10:02:29;7.18;;;2.03;;
78871;SDS011;68247;43.514;1.502;2023-09-19T10:05:03;8.63;;;1.77;;
78871;SDS011;68247;43.514;1.502;2023-09-19T10:07:49;6.47;;;2.00;;
78871;SDS011;68247;43.514;1.502;2023-09-19T10:10:30;7.38;;;1.92;;
78871;SDS011;68247;43.514;1.502;2023-09-19T10:13:23;8.50;;;2.17;;
78871;SDS011;68247;43.514;1.502;2023-09-19T10:15:51;6.25;;;1.73;;
78871;SDS011;68247;43.514;1.502;2023-09-19T10:18:20;4.45;;;1.60;;
78871;SDS011;68247;43.514;1.502;2023-09-19T10:20:48;6.97;;;1.60;;
78871;SDS011;68247;43.514;1.502;2023-09-19T10:23:15;7.15;;;2.00;;
78871;SDS011;68247;43.514;1.502;2023-09-19T10:25:47;6.53;;;1.80;;
78871;SDS011;68247;43.514;1.502;2023-09-19T10:28:14;7.22;;;1.70;;
78871;SDS011;68247;43.514;1.502;2023-09-19T10:30:44;4.63;;;1.70;;
78871;SDS011;68247;43.514;1.502;2023-09-19T10:33:12;7.07;;;1.70;;
78871;SDS011;68247;43.514;1.502;2023-09-19T10:35:39;5.32;;;2.05;;
78871;SDS011;68247;43.514;1.502;2023-09-19T10:38:07;4.90;;;1.83;;
78871;SDS011;68247;43.514;1.502;2023-09-19T10:40:38;5.65;;;1.95;;
78871;SDS011;68247;43.514;1.502;2023-09-19T10:43:11;7.35;;;2.13;;
78871;SDS011;68247;43.514;1.502;2023-09-19T10:45:38;6.20;;;1.50;;
78871;SDS011;68247;43.514;1.502;2023-09-19T10:48:04;3.72;;;1.70;;
78871;SDS011;68247;43.514;1.502;2023-09-19T10:53:06;5.45;;;1.70;;
78871;SDS011;68247;43.514;1.502;2023-09-19T10:55:33;4.40;;;1.70;;
78871;SDS011;68247;43.514;1.502;2023-09-19T10:58:00;5.03;;;1.83;;
78871;SDS011;68247;43.514;1.502;2023-09-19T11:00:27;3.80;;;1.50;;
78871;SDS011;68247;43.514;1.502;2023-09-19T11:05:36;4.88;;;1.98;;
78871;SDS011;68247;43.514;1.502;2023-09-19T11:08:06;5.03;;;1.80;;
78871;SDS011;68247;43.514;1.502;2023-09-19T11:10:48;4.47;;;1.87;;
78871;SDS011;68247;43.514;1.502;2023-09-19T11:13:28;5.55;;;1.73;;
78871;SDS011;68247;43.514;1.502;2023-09-19T11:26:50;4.65;;;2.13;;
78871;SDS011;68247;43.514;1.502;2023-09-19T11:29:26;6.18;;;2.30;;
78871;SDS011;68247;43.514;1.502;2023-09-19T11:31:54;6.28;;;2.00;;
78871;SDS011;68247;43.514;1.502;2023-09-19T11:39:39;5.00;;;1.90;;
78871;SDS011;68247;43.514;1.502;2023-09-19T11:48:13;4.68;;;1.70;;
78871;SDS011;68247;43.514;1.502;2023-09-19T11:50:41;4.13;;;1.90;;
78871;SDS011;68247;43.514;1.502;2023-09-19T11:53:09;5.00;;;1.85;;
78871;SDS011;68247;43.514;1.502;2023-09-19T11:55:40;4.50;;;1.95;;
78871;SDS011;68247;43.514;1.502;2023-09-19T11:58:08;4.40;;;2.13;;
78871;SDS011;68247;43.514;1.502;2023-09-19T12:00:34;3.60;;;1.63;;
78871;SDS011;68247;43.514;1.502;2023-09-19T12:03:02;6.82;;;1.83;;
78871;SDS011;68247;43.514;1.502;2023-09-19T12:05:34;4.90;;;1.90;;
78871;SDS011;68247;43.514;1.502;2023-09-19T12:08:00;5.10;;;2.03;;
78871;SDS011;68247;43.514;1.502;2023-09-19T12:10:25;4.53;;;2.10;;
78871;SDS011;68247;43.514;1.502;2023-09-19T12:12:52;4.65;;;1.90;;
78871;SDS011;68247;43.514;1.502;2023-09-19T12:15:25;4.73;;;2.07;;
78871;SDS011;68247;43.514;1.502;2023-09-19T12:17:59;4.43;;;2.05;;
78871;SDS011;68247;43.514;1.502;2023-09-19T12:20:25;4.13;;;1.90;;
78871;SDS011;68247;43.514;1.502;2023-09-19T12:22:50;4.33;;;2.20;;
78871;SDS011;68247;43.514;1.502;2023-09-19T12:25:16;3.97;;;2.08;;
78871;SDS011;68247;43.514;1.502;2023-09-19T12:27:49;4.93;;;2.10;;
78871;SDS011;68247;43.514;1.502;2023-09-19T12:30:18;5.43;;;2.08;;
78871;SDS011;68247;43.514;1.502;2023-09-19T12:32:45;5.00;;;2.35;;
78871;SDS011;68247;43.514;1.502;2023-09-19T12:35:26;4.20;;;2.30;;
78871;SDS011;68247;43.514;1.502;2023-09-19T12:38:01;4.63;;;2.13;;
78871;SDS011;68247;43.514;1.502;2023-09-19T12:40:28;3.83;;;2.37;;
78871;SDS011;68247;43.514;1.502;2023-09-19T12:42:54;4.40;;;2.30;;
78871;SDS011;68247;43.514;1.502;2023-09-19T12:45:29;5.35;;;2.60;;
78871;SDS011;68247;43.514;1.502;2023-09-19T12:53:33;3.10;;;2.22;;
78871;SDS011;68247;43.514;1.502;2023-09-19T12:56:03;3.75;;;2.40;;
78871;SDS011;68247;43.514;1.502;2023-09-19T12:58:33;4.13;;;2.50;;
78871;SDS011;68247;43.514;1.502;2023-09-19T13:01:00;3.70;;;2.50;;
78871;SDS011;68247;43.514;1.502;2023-09-19T13:03:26;5.00;;;2.43;;
78871;SDS011;68247;43.514;1.502;2023-09-19T13:06:03;5.28;;;2.35;;
78871;SDS011;68247;43.514;1.502;2023-09-19T13:13:46;4.03;;;2.30;;
78871;SDS011;68247;43.514;1.502;2023-09-19T13:16:18;4.97;;;2.57;;
78871;SDS011;68247;43.514;1.502;2023-09-19T13:18:50;4.25;;;2.45;;
78871;SDS011;68247;43.514;1.502;2023-09-19T13:21:26;4.22;;;2.30;;
78871;SDS011;68247;43.514;1.502;2023-09-19T13:26:52;4.72;;;2.78;;
78871;SDS011;68247;43.514;1.502;2023-09-19T13:29:18;5.33;;;2.40;;
78871;SDS011;68247;43.514;1.502;2023-09-19T13:31:50;5.63;;;2.87;;
78871;SDS011;68247;43.514;1.502;2023-09-19T13:34:18;5.60;;;2.90;;
78871;SDS011;68247;43.514;1.502;2023-09-19T13:36:45;6.03;;;2.50;;
78871;SDS011;68247;43.514;1.502;2023-09-19T13:39:12;4.50;;;2.75;;
78871;SDS011;68247;43.514;1.502;2023-09-19T13:41:38;4.80;;;3.10;;
78871;SDS011;68247;43.514;1.502;2023-09-19T13:44:03;5.40;;;2.87;;
78871;SDS011;68247;43.514;1.502;2023-09-19T13:46:29;4.22;;;2.70;;
78871;SDS011;68247;43.514;1.502;2023-09-19T13:48:58;3.90;;;2.80;;
78871;SDS011;68247;43.514;1.502;2023-09-19T13:51:25;5.45;;;2.83;;
78871;SDS011;68247;43.514;1.502;2023-09-19T13:53:51;3.97;;;2.63;;
78871;SDS011;68247;43.514;1.502;2023-09-19T13:56:17;3.67;;;2.63;;
78871;SDS011;68247;43.514;1.502;2023-09-19T13:58:42;4.18;;;2.80;;
78871;SDS011;68247;43.514;1.502;2023-09-19T14:01:08;3.53;;;2.60;;
78871;SDS011;68247;43.514;1.502;2023-09-19T14:03:38;3.95;;;2.65;;
78871;SDS011;68247;43.514;1.502;2023-09-19T14:06:04;6.83;;;2.87;;
78871;SDS011;68247;43.514;1.502;2023-09-19T14:08:30;3.90;;;2.67;;
78871;SDS011;68247;43.514;1.502;2023-09-19T14:10:55;4.07;;;2.90;;
78871;SDS011;68247;43.514;1.502;2023-09-19T14:13:21;4.15;;;3.00;;
78871;SDS011;68247;43.514;1.502;2023-09-19T14:15:46;4.83;;;2.87;;
78871;SDS011;68247;43.514;1.502;2023-09-19T14:18:12;3.90;;;3.10;;
78871;SDS011;68247;43.514;1.502;2023-09-19T14:20:38;3.97;;;2.70;;
78871;SDS011;68247;43.514;1.502;2023-09-19T14:23:05;4.20;;;2.90;;
78871;SDS011;68247;43.514;1.502;2023-09-19T14:25:33;4.85;;;3.33;;
78871;SDS011;68247;43.514;1.502;2023-09-19T14:27:59;4.55;;;3.00;;
78871;SDS011;68247;43.514;1.502;2023-09-19T14:30:25;4.07;;;3.10;;
78871;SDS011;68247;43.514;1.502;2023-09-19T14:32:51;4.70;;;2.90;;
78871;SDS011;68247;43.514;1.502;2023-09-19T14:35:16;5.23;;;3.17;;
78871;SDS011;68247;43.514;1.502;2023-09-19T14:37:42;4.90;;;3.03;;
78871;SDS011;68247;43.514;1.502;2023-09-19T14:40:08;5.38;;;3.45;;
78871;SDS011;68247;43.514;1.502;2023-09-19T14:42:38;3.77;;;3.10;;
78871;SDS011;68247;43.514;1.502;2023-09-19T14:45:04;4.13;;;3.10;;
78871;SDS011;68247;43.514;1.502;2023-09-19T14:47:30;5.35;;;3.25;;
78871;SDS011;68247;43.514;1.502;2023-09-19T14:49:59;6.43;;;3.40;;
78871;SDS011;68247;43.514;1.502;2023-09-19T14:52:26;3.90;;;3.50;;
78871;SDS011;68247;43.514;1.502;2023-09-19T14:54:53;4.00;;;2.77;;
78871;SDS011;68247;43.514;1.502;2023-09-19T14:57:19;5.80;;;3.53;;
78871;SDS011;68247;43.514;1.502;2023-09-19T14:59:44;5.00;;;3.30;;
78871;SDS011;68247;43.514;1.502;2023-09-19T15:02:10;6.13;;;3.40;;
78871;SDS011;68247;43.514;1.502;2023-09-19T15:04:35;6.60;;;3.65;;
78871;SDS011;68247;43.514;1.502;2023-09-19T15:07:00;4.13;;;3.00;;
78871;SDS011;68247;43.514;1.502;2023-09-19T15:09:28;4.15;;;3.58;;
78871;SDS011;68247;43.514;1.502;2023-09-19T15:11:55;4.65;;;3.50;;
78871;SDS011;68247;43.514;1.502;2023-09-19T15:14:23;4.18;;;3.33;;
78871;SDS011;68247;43.514;1.502;2023-09-19T15:16:50;4.32;;;3.30;;
78871;SDS011;68247;43.514;1.502;2023-09-19T15:19:15;5.10;;;3.27;;
78871;SDS011;68247;43.514;1.502;2023-09-19T15:21:41;3.92;;;2.90;;
78871;SDS011;68247;43.514;1.502;2023-09-19T15:24:07;5.40;;;3.20;;
78871;SDS011;68247;43.514;1.502;2023-09-19T15:26:35;5.10;;;3.13;;
78871;SDS011;68247;43.514;1.502;2023-09-19T15:29:08;3.97;;;3.10;;
78871;SDS011;68247;43.514;1.502;2023-09-19T15:31:34;3.95;;;3.30;;
78871;SDS011;68247;43.514;1.502;2023-09-19T15:34:03;4.38;;;3.20;;
78871;SDS011;68247;43.514;1.502;2023-09-19T15:36:30;4.40;;;3.20;;
78871;SDS011;68247;43.514;1.502;2023-09-19T15:39:02;4.70;;;3.33;;
78871;SDS011;68247;43.514;1.502;2023-09-19T15:41:31;5.28;;;3.10;;
78871;SDS011;68247;43.514;1.502;2023-09-19T15:43:58;4.00;;;2.90;;
78871;SDS011;68247;43.514;1.502;2023-09-19T15:46:26;4.47;;;2.90;;
78871;SDS011;68247;43.514;1.502;2023-09-19T15:48:55;3.92;;;2.50;;
78871;SDS011;68247;43.514;1.502;2023-09-19T15:51:22;4.33;;;2.00;;
78871;SDS011;68247;43.514;1.502;2023-09-19T15:53:48;4.40;;;2.22;;
78871;SDS011;68247;43.514;1.502;2023-09-19T15:56:15;5.28;;;2.15;;
78871;SDS011;68247;43.514;1.502;2023-09-19T15:58:43;3.70;;;2.20;;
78871;SDS011;68247;43.514;1.502;2023-09-19T16:01:09;3.87;;;2.20;;
78871;SDS011;68247;43.514;1.502;2023-09-19T16:03:35;4.43;;;2.30;;
78871;SDS011;68247;43.514;1.502;2023-09-19T16:06:02;4.10;;;2.00;;